Airfield :
LOGIN :

Register | Disclaimer

   EN    FR    IT 

 










Legend :    VFR   Marginal VFR   IFR   Intensive IFR   Very Intensive IFR
Visi :
Ceiling :
>= 8 km
>= 3000ft
5 to 8 km
1000 to 3000 ft
1500m to 5 km
500 to 1000 ft
800 to 1500m
200 to 500 ft
< 800m
< 200 ft
Symbols :   Thunderstorms  Fog  Heavy snow  Heavy precipitations  Wind > 20 kt
SIGMETs :     Misc.  Thunderstorms  Icing  Turbulence  Mountain Waves  Volcanic Ashes






- Airport Elevation : 75 ft
- IATA code : YEO


EGDY - RNAS Yeovilton

CURRENT METAR :
  • 152250Z AUTO 17011KT 9999 -RA BKN023/// SCT110/// 14/12 Q1002

EXPIRED METARs :
  • 152150Z AUTO 16007KT 9999 -RA FEW037/// BKN043/// 14/12 Q1003
  • 152120Z 15007KT 9999 -RA SCT022 BKN050 13/12 Q1003 BECMG SCT012 RMK WHT BECMG GRN
  • 152050Z 14006KT 9999 FEW022 SCT050 BKN140 12/10 Q1004 BECMG FEW012 SCT022 RMK BLU BECMG WHT
  • 152020Z 12005KT 9999 FEW022 SCT030 BKN200 11/10 Q1004 BECMG FEW012 SCT022 RMK BLU BECMG WHT
  • 152003Z 13006KT 9999 FEW022 SCT030 BKN200 11/09 Q1004 BECMG SCT022 RMK BLU BECMG WHT

TAF TAF EGDY
Valid from the 15 at 18:00 until the 16 at 03:00 UTC


151703Z 1518/1603 26010KT 9999 SCT025
BECMG 1520/1522 SCT015
TEMPO 1520/1603 6000 -RA SCT012
PROB30
TEMPO 1521/1524 3000 RADZ SCT005



MET'MAP, your aeronautical weather chart ! - Copyright ORBIFLY December 2007 - Disclaimer

ORBIFLY MET'MAP TEAM :

Programming & Development : Alexandra Zaïnal
Concept & Development : Baudouin d'Aumeries
Co-Development & Prog : Marc-Olivier Méhu
Technical & hardware support : Manuel Goepfert

Contact : metmap@orbifly.com




SOURCES & CREDITS :

   NOAA